createdAt,value
2022-09-15T00:00:33.695Z,98351.28
2022-09-15T00:05:37.224Z,98341.34
2022-09-15T00:10:41.830Z,98331.84
2022-09-15T00:15:47.216Z,98333.22
2022-09-15T00:20:51.120Z,98331.16
2022-09-15T00:25:55.140Z,98344.19
2022-09-15T00:30:59.978Z,98335.28
2022-09-15T00:36:05.646Z,98321.00
2022-09-15T00:41:11.723Z,98316.34
2022-09-15T00:46:18.267Z,98318.69
2022-09-15T00:51:26.477Z,98322.63
2022-09-15T00:56:31.573Z,98317.63
2022-09-15T01:01:36.438Z,98323.75
2022-09-15T01:06:45.636Z,98314.41
2022-09-15T01:11:49.475Z,98308.91
2022-09-15T01:17:01.818Z,98304.56
2022-09-15T01:22:18.418Z,98307.78
2022-09-15T01:27:53.067Z,98299.06
2022-09-15T01:33:18.199Z,98294.38
2022-09-15T01:38:43.426Z,98287.38
2022-09-15T01:43:52.093Z,98287.53
2022-09-15T01:48:59.765Z,98277.91
2022-09-15T01:54:06.978Z,98276.53
2022-09-15T01:59:10.900Z,98266.13
2022-09-15T02:04:21.780Z,98270.63
2022-09-15T02:09:32.792Z,98263.25
2022-09-15T02:14:49.148Z,98265.84
2022-09-15T02:19:58.710Z,98258.78
2022-09-15T02:25:06.303Z,98267.97
2022-09-15T02:30:13.164Z,98265.06
2022-09-15T02:35:18.776Z,98260.94
2022-09-15T02:40:23.360Z,98265.69
2022-09-15T02:45:27.306Z,98262.84
2022-09-15T02:50:32.492Z,98265.53
2022-09-15T02:55:36.321Z,98270.13
2022-09-15T03:00:39.850Z,98266.47
2022-09-15T03:05:45.008Z,98262.97
2022-09-15T03:10:48.445Z,98267.66
2022-09-15T03:15:51.818Z,98260.69
2022-09-15T03:20:59.104Z,98256.19
2022-09-15T03:26:03.110Z,98267.84
2022-09-15T03:31:07.652Z,98272.19
2022-09-15T03:36:12.606Z,98271.09
2022-09-15T03:41:16.002Z,98273.44
2022-09-15T03:46:19.893Z,98267.06
2022-09-15T03:51:25.328Z,98259.28
2022-09-15T03:56:31.406Z,98262.88
2022-09-15T04:01:34.999Z,98261.84
2022-09-15T04:06:39.933Z,98249.44
2022-09-15T04:11:43.413Z,98253.53
2022-09-15T04:16:47.415Z,98255.81
2022-09-15T04:21:52.631Z,98252.84
2022-09-15T04:26:56.231Z,98252.44
2022-09-15T04:31:59.660Z,98256.44
2022-09-15T04:37:04.606Z,98254.66
2022-09-15T04:42:08.088Z,98251.34
2022-09-15T04:47:11.794Z,98253.00
2022-09-15T04:52:16.594Z,98260.09
2022-09-15T04:57:19.935Z,98273.44
2022-09-15T05:02:23.396Z,98272.03
2022-09-15T05:07:28.239Z,98279.97
2022-09-15T05:12:31.930Z,98274.72
2022-09-15T05:17:35.962Z,98278.31
2022-09-15T05:22:41.938Z,98271.13
2022-09-15T05:27:45.504Z,98272.13
2022-09-15T05:32:48.903Z,98269.50
2022-09-15T05:37:53.654Z,98258.38
2022-09-15T05:42:57.129Z,98256.69
2022-09-15T05:48:00.499Z,98250.81
2022-09-15T05:53:05.625Z,98256.63
2022-09-15T05:58:09.162Z,98238.91
2022-09-15T06:03:15.986Z,98240.88
2022-09-15T06:08:20.830Z,98238.06
2022-09-15T06:13:24.207Z,98235.34
2022-09-15T06:18:27.681Z,98234.06
2022-09-15T06:23:32.613Z,98226.00
2022-09-15T06:28:36.591Z,98229.53
2022-09-15T06:33:44.044Z,98242.56
2022-09-15T06:38:50.387Z,98233.09
2022-09-15T06:43:53.933Z,98226.88
2022-09-15T06:48:57.566Z,98230.63
2022-09-15T06:54:02.886Z,98214.22
2022-09-15T06:59:06.837Z,98212.69
2022-09-15T07:04:10.937Z,98209.31
2022-09-15T07:09:16.083Z,98204.28
2022-09-15T07:14:19.800Z,98214.03
2022-09-15T07:19:23.534Z,98217.88
2022-09-15T07:24:28.327Z,98225.56
2022-09-15T07:29:35.855Z,98211.13
2022-09-15T07:34:41.068Z,98218.84
2022-09-15T07:39:46.766Z,98210.09
2022-09-15T07:44:50.210Z,98207.06
2022-09-15T07:49:53.664Z,98198.03
2022-09-15T07:54:58.455Z,98204.59
2022-09-15T08:00:02.266Z,98207.03
2022-09-15T08:05:15.707Z,98210.31
2022-09-15T08:10:20.646Z,98207.41
2022-09-15T08:15:24.282Z,98193.25
2022-09-15T08:20:27.681Z,98205.34
2022-09-15T08:25:33.093Z,98194.91
2022-09-15T08:30:36.707Z,98176.53
2022-09-15T08:35:40.134Z,98184.13
2022-09-15T08:40:47.354Z,98195.50
2022-09-15T08:45:55.084Z,98196.06
2022-09-15T08:51:05.457Z,98203.06
2022-09-15T08:56:17.205Z,98192.38
2022-09-15T09:01:36.076Z,98169.41
2022-09-15T09:06:46.196Z,98176.94
2022-09-15T09:12:27.555Z,98164.56
2022-09-15T09:17:43.067Z,98168.13
2022-09-15T09:22:51.813Z,98167.91
2022-09-15T09:27:58.178Z,98177.72
2022-09-15T09:33:26.588Z,98179.88
2022-09-15T09:38:33.549Z,98172.81
2022-09-15T09:43:38.384Z,98179.28
2022-09-15T09:48:45.522Z,98164.38
2022-09-15T09:53:55.053Z,98168.44
2022-09-15T09:59:01.503Z,98169.09
2022-09-15T10:04:14.008Z,98167.59
2022-09-15T10:09:19.189Z,98162.69
2022-09-15T10:14:28.007Z,98150.09
2022-09-15T10:19:33.405Z,98161.97
2022-09-15T10:24:40.767Z,98153.25
2022-09-15T10:29:46.121Z,98154.22
2022-09-15T10:34:49.628Z,98140.66
2022-09-15T10:39:58.206Z,98152.56
2022-09-15T10:45:16.134Z,98149.84
2022-09-15T10:50:30.601Z,98138.69
2022-09-15T10:55:52.806Z,98138.81
2022-09-15T11:01:06.880Z,98125.75
2022-09-15T11:06:18.653Z,98134.38
2022-09-15T11:11:33.455Z,98120.41
2022-09-15T11:16:49.214Z,98125.00
2022-09-15T11:21:56.803Z,98118.44
2022-09-15T11:27:06.933Z,98116.63
2022-09-15T11:32:19.123Z,98104.13
2022-09-15T11:37:28.014Z,98111.81
2022-09-15T11:42:37.661Z,98112.44
2022-09-15T11:47:46.083Z,98110.19
2022-09-15T11:52:56.981Z,98108.13
2022-09-15T11:58:22.542Z,98096.25
2022-09-15T12:03:33.938Z,98106.06
2022-09-15T12:08:43.544Z,98096.06
2022-09-15T12:13:47.614Z,98084.03
2022-09-15T12:18:56.588Z,98090.03
2022-09-15T12:24:09.040Z,98091.31
2022-09-15T12:29:42.215Z,98097.38
2022-09-15T12:34:59.578Z,98091.00
2022-09-15T12:40:05.268Z,98078.22
2022-09-15T12:45:23.685Z,98075.13
2022-09-15T12:50:31.884Z,98075.25
2022-09-15T12:55:37.732Z,98075.25
2022-09-15T13:01:06.857Z,98076.97
2022-09-15T13:06:21.046Z,98084.47
2022-09-15T13:11:37.898Z,98073.50
2022-09-15T13:16:49.695Z,98090.59
2022-09-15T13:22:00.445Z,98082.69
2022-09-15T13:27:07.191Z,98073.53
2022-09-15T13:32:19.688Z,98078.22
2022-09-15T13:43:30.948Z,98078.00
2022-09-15T13:48:49.797Z,98069.59
2022-09-15T13:53:57.692Z,98072.66
2022-09-15T13:59:10.229Z,98077.78
2022-09-15T14:04:19.269Z,98075.59
2022-09-15T14:09:27.785Z,98077.56
2022-09-15T14:14:37.625Z,98087.91
2022-09-15T14:19:41.488Z,98072.72
2022-09-15T14:24:47.349Z,98065.16
2022-09-15T14:29:55.270Z,98073.41
2022-09-15T14:35:05.595Z,98068.00
2022-09-15T14:40:25.025Z,98077.31
2022-09-15T14:46:02.798Z,98080.84
2022-09-15T14:51:08.241Z,98070.88
2022-09-15T14:56:20.064Z,98074.19
2022-09-15T15:01:27.693Z,98063.22
2022-09-15T15:06:35.208Z,98071.28
2022-09-15T15:11:41.961Z,98074.28
2022-09-15T15:16:54.010Z,98083.97
2022-09-15T15:22:08.705Z,98078.19
2022-09-15T15:27:44.784Z,98073.41
2022-09-15T15:32:48.185Z,98084.88
2022-09-15T15:38:02.367Z,98082.31
2022-09-15T15:43:09.290Z,98079.34
2022-09-15T15:48:13.192Z,98078.94
2022-09-15T15:53:16.686Z,98076.16
2022-09-15T15:58:21.879Z,98083.03
2022-09-15T16:03:25.966Z,98081.41
2022-09-15T16:08:31.305Z,98078.34
2022-09-15T16:13:36.864Z,98086.53
2022-09-15T16:18:40.250Z,98076.19
2022-09-15T16:23:43.808Z,98085.91
2022-09-15T16:28:48.827Z,98092.03
2022-09-15T16:33:52.249Z,98095.28
2022-09-15T16:38:55.622Z,98092.75
2022-09-15T16:44:00.457Z,98088.38
2022-09-15T16:49:03.834Z,98089.47
2022-09-15T16:54:15.572Z,98093.97
2022-09-15T16:59:20.418Z,98096.00
2022-09-15T17:04:24.014Z,98090.16
2022-09-15T17:09:27.436Z,98086.56
2022-09-15T17:14:32.314Z,98080.56
2022-09-15T17:19:35.835Z,98080.72
2022-09-15T17:24:39.217Z,98092.00
2022-09-15T17:29:44.216Z,98087.47
2022-09-15T17:34:47.832Z,98089.88
2022-09-15T17:39:53.534Z,98092.59
2022-09-15T17:45:01.592Z,98086.84
2022-09-15T17:50:05.942Z,98095.03
2022-09-15T17:55:17.883Z,98101.13
2022-09-15T18:00:24.000Z,98097.03
2022-09-15T18:05:29.709Z,98092.91
2022-09-15T18:10:34.762Z,98111.31
2022-09-15T18:15:40.040Z,98102.06
2022-09-15T18:20:44.291Z,98107.00
2022-09-15T18:25:48.839Z,98107.25
2022-09-15T18:30:53.704Z,98087.41
2022-09-15T18:35:59.144Z,98084.63
2022-09-15T18:41:04.652Z,98094.19
2022-09-15T18:46:09.633Z,98086.47
2022-09-15T18:51:19.709Z,98086.03
2022-09-15T18:56:27.755Z,98081.78
2022-09-15T19:01:32.880Z,98080.31
2022-09-15T19:06:36.984Z,98078.63
2022-09-15T19:11:40.446Z,98080.38
2022-09-15T19:16:57.192Z,98084.56
2022-09-15T19:22:01.605Z,98086.91
2022-09-15T19:27:06.654Z,98082.25
2022-09-15T19:32:13.790Z,98071.00
2022-09-15T19:37:19.838Z,98079.03
2022-09-15T19:42:23.400Z,98087.63
2022-09-15T19:47:28.300Z,98079.66
2022-09-15T19:52:31.788Z,98072.41
2022-09-15T19:57:35.188Z,98081.88
2022-09-15T20:02:40.356Z,98070.63
2022-09-15T20:07:44.910Z,98078.38
2022-09-15T20:12:48.430Z,98067.97
2022-09-15T20:17:53.223Z,98075.28
2022-09-15T20:22:56.605Z,98075.63
2022-09-15T20:28:00.084Z,98076.78
2022-09-15T20:33:05.050Z,98070.50
2022-09-15T20:38:08.490Z,98069.00
2022-09-15T20:43:12.230Z,98062.97
2022-09-15T20:48:17.012Z,98068.28
2022-09-15T20:53:20.726Z,98068.81
2022-09-15T20:58:25.364Z,98057.84
2022-09-15T21:03:30.536Z,98055.00
2022-09-15T21:08:34.354Z,98042.66
2022-09-15T21:13:38.717Z,98033.41
2022-09-15T21:18:45.437Z,98036.38
2022-09-15T21:23:50.390Z,98031.16
2022-09-15T21:28:55.301Z,98026.41
2022-09-15T21:34:01.030Z,98021.19
2022-09-15T21:39:04.552Z,98021.06
2022-09-15T21:44:08.041Z,98011.38
2022-09-15T21:49:12.829Z,98016.69
2022-09-15T21:54:16.520Z,98019.50
2022-09-15T21:59:19.888Z,98024.59
2022-09-15T22:04:24.726Z,98025.22
2022-09-15T22:09:28.235Z,98018.00
2022-09-15T22:14:32.566Z,98017.06
2022-09-15T22:19:38.043Z,98014.16
2022-09-15T22:24:41.815Z,98008.84
2022-09-15T22:29:45.274Z,98008.19
2022-09-15T22:34:50.301Z,97998.75
2022-09-15T22:39:59.292Z,97991.28
2022-09-15T22:45:02.976Z,97991.78
2022-09-15T22:50:08.545Z,97985.41
2022-09-15T22:55:11.945Z,97993.09
2022-09-15T23:00:16.267Z,97994.16
2022-09-15T23:05:21.268Z,97984.38
2022-09-15T23:10:26.764Z,97974.63
2022-09-15T23:15:30.417Z,97978.09
2022-09-15T23:20:35.256Z,97964.81
2022-09-15T23:25:38.701Z,97967.22
2022-09-15T23:30:42.079Z,97963.38
2022-09-15T23:35:47.073Z,97969.25
2022-09-15T23:40:50.974Z,97957.53
2022-09-15T23:45:54.540Z,97968.66
2022-09-15T23:50:59.655Z,97965.03
2022-09-15T23:56:03.642Z,97972.16
